createdAt,value
2022-12-31T00:01:44.716Z,7.96
2022-12-31T00:04:13.449Z,7.95
2022-12-31T00:06:42.227Z,7.87
2022-12-31T00:09:14.144Z,6.87
2022-12-31T00:11:48.469Z,7.35
2022-12-31T00:14:17.459Z,7.64
2022-12-31T00:16:45.885Z,6.60
2022-12-31T00:19:14.571Z,7.27
2022-12-31T00:21:44.949Z,7.08
2022-12-31T00:24:14.064Z,7.60
2022-12-31T00:26:44.065Z,7.56
2022-12-31T00:29:12.753Z,7.26
2022-12-31T00:31:41.843Z,7.53
2022-12-31T00:34:12.064Z,7.00
2022-12-31T00:36:42.612Z,7.40
2022-12-31T00:39:21.195Z,7.21
2022-12-31T00:41:51.186Z,5.89
2022-12-31T00:44:20.644Z,7.48
2022-12-31T00:46:49.479Z,7.48
2022-12-31T00:49:18.399Z,7.43
2022-12-31T00:51:47.503Z,7.01
2022-12-31T00:54:18.652Z,7.47
2022-12-31T00:56:51.541Z,6.99
2022-12-31T00:59:21.542Z,7.10
2022-12-31T01:01:53.104Z,7.42
2022-12-31T01:04:24.257Z,6.75
2022-12-31T01:06:52.903Z,7.04
2022-12-31T01:09:22.301Z,7.45
2022-12-31T01:11:52.821Z,7.44
2022-12-31T01:14:22.870Z,7.43
2022-12-31T01:16:54.059Z,7.42
2022-12-31T01:19:29.438Z,7.36
2022-12-31T01:22:01.006Z,7.33
2022-12-31T01:24:29.576Z,7.38
2022-12-31T01:26:58.643Z,7.58
2022-12-31T01:29:35.114Z,7.74
2022-12-31T01:32:03.630Z,7.84
2022-12-31T01:34:33.443Z,7.97
2022-12-31T01:37:02.528Z,7.68
2022-12-31T01:39:33.504Z,8.21
2022-12-31T01:42:03.884Z,8.31
2022-12-31T01:44:56.700Z,8.44
2022-12-31T01:47:40.971Z,8.47
2022-12-31T01:50:17.254Z,8.62
2022-12-31T01:52:51.220Z,8.64
2022-12-31T01:55:28.402Z,7.79
2022-12-31T01:58:06.365Z,8.57
2022-12-31T02:00:40.129Z,8.38
2022-12-31T02:03:11.250Z,8.83
2022-12-31T02:05:49.103Z,8.90
2022-12-31T02:08:18.870Z,8.47
2022-12-31T02:10:47.455Z,7.39
2022-12-31T02:13:18.259Z,8.68
2022-12-31T02:16:00.635Z,8.06
2022-12-31T02:18:44.456Z,8.77
2022-12-31T02:21:52.297Z,7.60
2022-12-31T02:25:25.970Z,9.11
2022-12-31T02:28:11.452Z,8.88
2022-12-31T02:30:50.065Z,9.17
2022-12-31T02:33:25.515Z,8.66
2022-12-31T02:36:07.259Z,9.22
2022-12-31T02:38:41.687Z,9.41
2022-12-31T02:41:35.009Z,8.16
2022-12-31T02:44:04.505Z,9.60
2022-12-31T02:46:52.876Z,9.89
2022-12-31T02:49:38.194Z,8.90
2022-12-31T02:52:19.478Z,8.70
2022-12-31T02:55:00.108Z,8.73
2022-12-31T02:57:38.782Z,8.94
2022-12-31T03:00:29.071Z,8.55
2022-12-31T03:03:04.205Z,8.54
2022-12-31T03:05:42.394Z,9.78
2022-12-31T03:08:13.297Z,9.80
2022-12-31T03:10:44.836Z,9.07
2022-12-31T03:13:14.423Z,9.95
2022-12-31T03:15:43.576Z,10.05
2022-12-31T03:18:39.210Z,9.04
2022-12-31T03:21:32.227Z,10.00
2022-12-31T03:24:18.273Z,9.66
2022-12-31T03:26:47.242Z,8.96
2022-12-31T03:29:16.955Z,9.96
2022-12-31T03:31:46.007Z,9.96
2022-12-31T03:34:17.447Z,8.45
2022-12-31T03:36:46.569Z,9.95
2022-12-31T03:39:16.975Z,9.94
2022-12-31T03:41:45.845Z,9.95
2022-12-31T03:44:14.336Z,9.93
2022-12-31T03:46:43.206Z,9.90
2022-12-31T03:49:12.214Z,9.90
2022-12-31T03:51:45.730Z,9.91
2022-12-31T03:54:14.245Z,9.95
2022-12-31T03:56:42.995Z,9.99
2022-12-31T03:59:15.214Z,9.58
2022-12-31T04:01:45.730Z,10.06
2022-12-31T04:04:14.651Z,10.01
2022-12-31T04:06:47.176Z,8.59
2022-12-31T04:09:15.982Z,10.10
2022-12-31T04:11:44.666Z,10.17
2022-12-31T04:14:13.280Z,9.69
2022-12-31T04:16:43.970Z,10.33
2022-12-31T04:19:13.405Z,10.36
2022-12-31T04:21:43.321Z,10.18
2022-12-31T04:24:11.908Z,9.93
2022-12-31T04:26:40.815Z,10.27
2022-12-31T04:29:09.303Z,9.69
2022-12-31T04:31:38.087Z,9.87
2022-12-31T04:34:06.707Z,10.08
2022-12-31T04:36:35.556Z,10.07
2022-12-31T04:39:05.679Z,9.82
2022-12-31T04:41:34.512Z,10.15
2022-12-31T04:44:03.638Z,10.17
2022-12-31T04:46:34.659Z,10.13
2022-12-31T04:49:08.153Z,10.21
2022-12-31T04:51:37.680Z,9.49
2022-12-31T04:54:08.140Z,9.83
2022-12-31T04:56:37.135Z,9.68
2022-12-31T04:59:07.262Z,10.04
2022-12-31T05:01:39.601Z,10.25
2022-12-31T05:04:08.210Z,10.25
2022-12-31T05:06:39.480Z,10.21
2022-12-31T05:09:09.477Z,9.79
2022-12-31T05:11:43.950Z,10.16
2022-12-31T05:14:13.032Z,10.55
2022-12-31T05:16:41.569Z,10.62
2022-12-31T05:19:13.154Z,10.67
2022-12-31T05:21:41.683Z,10.01
2022-12-31T05:24:11.743Z,10.69
2022-12-31T05:26:46.163Z,10.87
2022-12-31T05:29:14.877Z,10.82
2022-12-31T05:31:45.650Z,10.23
2022-12-31T05:34:14.204Z,9.97
2022-12-31T05:36:42.618Z,11.01
2022-12-31T05:39:12.520Z,10.75
2022-12-31T05:41:41.097Z,11.18
2022-12-31T05:44:09.552Z,11.42
2022-12-31T05:46:38.608Z,11.46
2022-12-31T05:49:10.377Z,11.50
2022-12-31T05:51:39.367Z,11.50
2022-12-31T05:54:08.237Z,10.58
2022-12-31T05:56:39.869Z,11.47
2022-12-31T05:59:08.412Z,11.07
2022-12-31T06:01:39.202Z,11.47
2022-12-31T06:04:07.743Z,11.49
2022-12-31T06:06:40.437Z,11.55
2022-12-31T06:09:09.133Z,10.78
2022-12-31T06:11:39.357Z,11.66
2022-12-31T06:14:08.159Z,11.69
2022-12-31T06:16:39.508Z,11.58
2022-12-31T06:19:08.307Z,11.52
2022-12-31T06:21:39.542Z,11.55
2022-12-31T06:24:09.721Z,11.37
2022-12-31T06:26:40.983Z,10.91
2022-12-31T06:29:15.471Z,11.02
2022-12-31T06:31:44.023Z,11.11
2022-12-31T06:34:13.666Z,11.26
2022-12-31T06:36:44.975Z,10.87
2022-12-31T06:39:13.506Z,11.27
2022-12-31T06:41:43.409Z,10.40
2022-12-31T06:44:12.003Z,11.12
2022-12-31T06:46:40.504Z,10.99
2022-12-31T06:49:08.950Z,10.92
2022-12-31T06:51:40.578Z,10.96
2022-12-31T06:54:09.161Z,10.91
2022-12-31T06:56:40.539Z,9.35
2022-12-31T06:59:30.227Z,10.57
2022-12-31T07:02:27.245Z,10.88
2022-12-31T07:05:23.049Z,10.72
2022-12-31T07:08:07.120Z,10.49
2022-12-31T07:10:51.900Z,10.04
2022-12-31T07:13:57.561Z,10.62
2022-12-31T07:16:41.084Z,10.75
2022-12-31T07:19:26.261Z,11.26
2022-12-31T07:21:57.898Z,11.57
2022-12-31T07:24:27.932Z,11.78
2022-12-31T07:27:21.873Z,11.67
2022-12-31T07:30:05.856Z,12.04
2022-12-31T07:32:59.507Z,11.78
2022-12-31T07:35:48.296Z,12.24
2022-12-31T07:38:31.197Z,12.11
2022-12-31T07:41:13.666Z,12.13
2022-12-31T07:43:58.304Z,12.49
2022-12-31T07:46:41.415Z,12.01
2022-12-31T07:49:15.151Z,11.41
2022-12-31T07:51:44.508Z,12.18
2022-12-31T07:54:14.416Z,12.28
2022-12-31T07:56:44.217Z,12.11
2022-12-31T07:59:32.233Z,11.57
2022-12-31T08:02:12.137Z,12.49
2022-12-31T08:05:01.548Z,11.65
2022-12-31T08:07:43.976Z,12.27
2022-12-31T08:10:23.829Z,12.34
2022-12-31T08:12:57.300Z,12.47
2022-12-31T08:15:30.369Z,11.57
2022-12-31T08:18:13.568Z,12.40
2022-12-31T08:21:29.529Z,11.29
2022-12-31T08:24:10.427Z,12.27
2022-12-31T08:27:05.146Z,12.18
2022-12-31T08:29:47.374Z,11.60
2022-12-31T08:32:26.610Z,11.18
2022-12-31T08:35:09.910Z,11.43
2022-12-31T08:37:45.961Z,12.38
2022-12-31T08:40:27.553Z,12.65
2022-12-31T08:43:34.315Z,13.28
2022-12-31T08:46:20.906Z,13.22
2022-12-31T08:48:52.668Z,13.57
2022-12-31T08:51:26.662Z,12.51
2022-12-31T08:54:00.379Z,13.84
2022-12-31T08:56:34.091Z,12.37
2022-12-31T08:59:39.614Z,14.01
2022-12-31T09:02:54.522Z,14.19
2022-12-31T09:05:30.832Z,12.85
2022-12-31T09:08:17.064Z,14.38
2022-12-31T09:11:00.546Z,14.52
2022-12-31T09:14:01.530Z,14.12
2022-12-31T09:16:44.694Z,14.71
2022-12-31T09:19:15.442Z,15.13
2022-12-31T09:21:45.428Z,14.52
2022-12-31T09:24:16.722Z,14.52
2022-12-31T09:27:03.165Z,15.28
2022-12-31T09:29:50.687Z,15.21
2022-12-31T09:32:31.341Z,15.46
2022-12-31T09:35:13.704Z,15.55
2022-12-31T09:37:50.353Z,15.72
2022-12-31T09:40:52.009Z,14.93
2022-12-31T09:44:16.615Z,15.89
2022-12-31T09:47:35.590Z,16.30
2022-12-31T09:50:29.909Z,16.35
2022-12-31T09:53:36.995Z,15.55
2022-12-31T09:56:15.866Z,16.54
2022-12-31T09:58:57.702Z,16.04
2022-12-31T10:01:49.722Z,16.14
2022-12-31T10:04:59.354Z,16.62
2022-12-31T10:07:53.422Z,16.06
2022-12-31T10:10:35.273Z,16.77
2022-12-31T10:13:33.238Z,16.77
2022-12-31T10:16:26.362Z,16.51
2022-12-31T10:19:48.652Z,17.18
2022-12-31T10:23:12.938Z,17.11
2022-12-31T10:26:03.057Z,16.91
2022-12-31T10:28:46.371Z,15.85
2022-12-31T10:31:19.939Z,16.39
2022-12-31T10:34:14.787Z,15.93
2022-12-31T10:37:11.904Z,16.60
2022-12-31T10:39:55.462Z,17.27
2022-12-31T10:43:19.376Z,17.37
2022-12-31T10:46:43.269Z,17.10
2022-12-31T10:50:09.512Z,17.10
2022-12-31T10:53:31.269Z,16.67
2022-12-31T10:56:50.997Z,17.02
2022-12-31T11:00:05.958Z,16.82
2022-12-31T11:03:39.898Z,16.94
2022-12-31T11:07:00.644Z,16.28
2022-12-31T11:10:50.127Z,17.16
2022-12-31T11:14:06.218Z,17.26
2022-12-31T11:17:03.636Z,17.20
2022-12-31T11:19:47.836Z,17.41
2022-12-31T11:22:44.664Z,17.18
2022-12-31T11:25:35.214Z,17.17
2022-12-31T11:28:51.753Z,17.45
2022-12-31T11:31:49.943Z,17.46
2022-12-31T11:34:50.383Z,17.22
2022-12-31T11:37:36.231Z,17.29
2022-12-31T11:40:42.005Z,17.26
2022-12-31T11:43:25.293Z,17.26
2022-12-31T11:46:15.519Z,17.28
2022-12-31T11:49:04.297Z,17.25
2022-12-31T11:51:53.312Z,17.22
2022-12-31T11:54:58.699Z,17.26
2022-12-31T11:57:35.616Z,17.13
2022-12-31T12:00:16.736Z,16.89
2022-12-31T12:02:50.065Z,17.15
2022-12-31T12:05:23.182Z,17.53
2022-12-31T12:07:53.298Z,17.67
2022-12-31T12:10:35.317Z,17.03
2022-12-31T12:13:17.725Z,17.11
2022-12-31T12:15:50.374Z,17.33
2022-12-31T12:18:40.937Z,17.24
2022-12-31T12:21:14.567Z,17.22
2022-12-31T12:23:55.477Z,17.18
2022-12-31T12:26:35.972Z,17.17
2022-12-31T12:29:13.429Z,17.19
2022-12-31T12:31:42.691Z,17.22
2022-12-31T12:34:25.846Z,17.21
2022-12-31T12:36:54.513Z,17.18
2022-12-31T12:39:26.378Z,17.15
2022-12-31T12:42:06.344Z,16.95
2022-12-31T12:44:35.904Z,17.13
2022-12-31T12:47:08.208Z,16.81
2022-12-31T12:49:42.714Z,17.35
2022-12-31T12:52:53.767Z,17.48
2022-12-31T12:55:37.880Z,17.13
2022-12-31T12:58:25.778Z,17.39
2022-12-31T13:01:06.453Z,17.23
2022-12-31T13:04:33.408Z,16.35
2022-12-31T13:07:18.189Z,16.98
2022-12-31T13:10:24.646Z,16.83
2022-12-31T13:13:25.705Z,17.41
2022-12-31T13:16:06.939Z,17.47
2022-12-31T13:18:53.511Z,16.64
2022-12-31T13:21:42.750Z,16.01
2022-12-31T13:24:32.433Z,16.21
2022-12-31T13:27:20.448Z,17.49
2022-12-31T13:29:51.229Z,17.50
2022-12-31T13:32:36.326Z,17.35
2022-12-31T13:35:26.287Z,17.45
2022-12-31T13:38:05.780Z,17.06
2022-12-31T13:40:48.934Z,17.45
2022-12-31T13:43:24.996Z,16.98
2022-12-31T13:46:07.163Z,17.24
2022-12-31T13:48:49.550Z,17.50
2022-12-31T13:51:28.144Z,17.54
2022-12-31T13:54:05.315Z,17.50
2022-12-31T13:56:40.015Z,17.27
2022-12-31T13:59:20.349Z,17.23
2022-12-31T14:01:56.192Z,17.41
2022-12-31T14:04:38.975Z,16.89
2022-12-31T14:07:16.563Z,17.01
2022-12-31T14:09:46.716Z,16.57
2022-12-31T14:12:33.265Z,16.91
2022-12-31T14:15:18.176Z,16.89
2022-12-31T14:17:57.001Z,16.74
2022-12-31T14:20:42.735Z,16.76
2022-12-31T14:23:21.348Z,16.51
2022-12-31T14:25:56.100Z,16.39
2022-12-31T14:28:32.791Z,16.49
2022-12-31T14:31:29.950Z,16.36
2022-12-31T14:34:09.607Z,15.88
2022-12-31T14:36:58.063Z,16.33
2022-12-31T14:39:46.360Z,15.36
2022-12-31T14:42:31.998Z,16.11
2022-12-31T14:45:22.060Z,16.10
2022-12-31T14:47:59.365Z,15.31
2022-12-31T14:50:30.793Z,16.04
2022-12-31T14:53:18.792Z,15.62
2022-12-31T14:55:59.399Z,16.07
2022-12-31T14:58:35.222Z,15.79
2022-12-31T15:01:08.877Z,15.08
2022-12-31T15:03:45.684Z,15.79
2022-12-31T15:06:49.125Z,15.95
2022-12-31T15:09:44.728Z,15.85
2022-12-31T15:12:44.275Z,15.71
2022-12-31T15:15:41.966Z,15.61
2022-12-31T15:18:38.398Z,15.83
2022-12-31T15:21:48.023Z,15.64
2022-12-31T15:24:24.073Z,15.72
2022-12-31T15:26:56.375Z,15.77
2022-12-31T15:29:39.982Z,15.71
2022-12-31T15:32:20.063Z,15.65
2022-12-31T15:34:48.908Z,14.06
2022-12-31T15:37:33.121Z,14.85
2022-12-31T15:40:24.993Z,15.44
2022-12-31T15:42:59.304Z,14.82
2022-12-31T15:45:36.696Z,13.96
2022-12-31T15:48:16.677Z,13.53
2022-12-31T15:50:47.365Z,15.01
2022-12-31T15:53:30.378Z,15.00
2022-12-31T15:56:03.098Z,14.97
2022-12-31T15:58:35.898Z,15.04
2022-12-31T16:01:14.888Z,14.93
2022-12-31T16:03:48.082Z,14.08
2022-12-31T16:06:18.482Z,14.92
2022-12-31T16:08:50.218Z,14.22
2022-12-31T16:11:20.376Z,14.44
2022-12-31T16:13:54.825Z,14.75
2022-12-31T16:16:26.647Z,14.92
2022-12-31T16:18:56.230Z,14.99
2022-12-31T16:21:36.870Z,14.93
2022-12-31T16:24:29.274Z,14.15
2022-12-31T16:27:04.097Z,14.86
2022-12-31T16:29:35.204Z,14.88
2022-12-31T16:32:13.223Z,14.47
2022-12-31T16:34:43.694Z,14.07
2022-12-31T16:37:18.721Z,14.81
2022-12-31T16:40:19.127Z,15.03
2022-12-31T16:42:49.364Z,14.38
2022-12-31T16:45:33.080Z,15.04
2022-12-31T16:48:16.622Z,15.05
2022-12-31T16:50:50.214Z,15.27
2022-12-31T16:53:22.336Z,15.37
2022-12-31T16:55:58.227Z,15.39
2022-12-31T16:58:32.171Z,14.45
2022-12-31T17:01:14.653Z,15.34
2022-12-31T17:03:47.038Z,15.42
2022-12-31T17:06:18.691Z,15.41
2022-12-31T17:09:03.543Z,15.40
2022-12-31T17:11:39.252Z,15.43
2022-12-31T17:14:17.284Z,15.39
2022-12-31T17:17:07.022Z,15.32
2022-12-31T17:19:41.606Z,15.35
2022-12-31T17:22:24.098Z,14.15
2022-12-31T17:25:01.134Z,14.43
2022-12-31T17:27:30.549Z,15.07
2022-12-31T17:30:43.567Z,15.31
2022-12-31T17:33:32.043Z,14.88
2022-12-31T17:36:23.481Z,14.43
2022-12-31T17:38:52.580Z,14.95
2022-12-31T17:41:28.246Z,15.39
2022-12-31T17:43:58.712Z,13.84
2022-12-31T17:46:28.786Z,15.42
2022-12-31T17:49:03.538Z,15.51
2022-12-31T17:51:32.087Z,15.15
2022-12-31T17:54:02.200Z,15.58
2022-12-31T17:56:30.855Z,15.60
2022-12-31T17:59:00.665Z,14.56
2022-12-31T18:01:31.221Z,15.61
2022-12-31T18:04:00.369Z,15.55
2022-12-31T18:06:29.133Z,15.53
2022-12-31T18:08:57.630Z,14.72
2022-12-31T18:11:26.305Z,15.61
2022-12-31T18:13:55.520Z,14.96
2022-12-31T18:16:24.105Z,15.66
2022-12-31T18:18:54.136Z,15.21
2022-12-31T18:21:30.447Z,15.74
2022-12-31T18:26:28.301Z,15.59
2022-12-31T18:29:15.244Z,15.65
2022-12-31T18:31:47.356Z,15.74
2022-12-31T18:34:19.502Z,15.75
2022-12-31T18:36:48.539Z,15.83
2022-12-31T18:39:16.936Z,15.84
2022-12-31T18:41:49.852Z,15.84
2022-12-31T18:44:18.880Z,15.78
2022-12-31T18:46:47.584Z,15.53
2022-12-31T18:49:17.480Z,15.87
2022-12-31T18:51:46.252Z,15.79
2022-12-31T18:54:17.960Z,15.70
2022-12-31T18:56:49.198Z,15.53
2022-12-31T18:59:18.861Z,15.74
2022-12-31T19:01:47.344Z,14.48
2022-12-31T19:04:27.069Z,15.75
2022-12-31T19:06:57.174Z,15.60
2022-12-31T19:12:15.740Z,14.44
2022-12-31T19:14:45.527Z,15.57
2022-12-31T19:17:16.152Z,15.54
2022-12-31T19:19:46.161Z,15.47
2022-12-31T19:22:16.857Z,15.17
2022-12-31T19:24:45.540Z,15.03
2022-12-31T19:27:14.790Z,15.51
2022-12-31T19:29:44.091Z,14.76
2022-12-31T19:32:12.845Z,14.62
2022-12-31T19:34:41.362Z,15.27
2022-12-31T19:37:16.230Z,14.04
2022-12-31T19:39:45.018Z,15.29
2022-12-31T19:42:16.582Z,14.27
2022-12-31T19:44:45.062Z,14.64
2022-12-31T19:47:14.704Z,13.76
2022-12-31T19:49:43.294Z,15.13
2022-12-31T19:52:13.519Z,13.93
2022-12-31T19:54:42.203Z,15.20
2022-12-31T19:57:10.685Z,14.18
2022-12-31T19:59:39.229Z,14.55
2022-12-31T20:02:08.412Z,14.69
2022-12-31T20:04:37.003Z,15.16
2022-12-31T20:07:06.373Z,15.52
2022-12-31T20:09:36.297Z,14.28
2022-12-31T20:12:05.355Z,14.56
2022-12-31T20:14:34.003Z,15.41
2022-12-31T20:17:02.628Z,15.41
2022-12-31T20:19:31.923Z,14.62
2022-12-31T20:22:00.904Z,15.32
2022-12-31T20:24:29.352Z,15.39
2022-12-31T20:26:59.200Z,15.33
2022-12-31T20:29:30.657Z,14.27
2022-12-31T20:31:59.172Z,13.80
2022-12-31T20:34:27.804Z,15.24
2022-12-31T20:36:59.217Z,15.24
2022-12-31T20:39:27.683Z,13.94
2022-12-31T20:41:56.171Z,15.18
2022-12-31T20:44:26.153Z,15.20
2022-12-31T20:46:54.763Z,15.32
2022-12-31T20:49:44.294Z,15.01
2022-12-31T20:52:11.804Z,15.19
2022-12-31T20:54:40.284Z,14.96
2022-12-31T20:57:08.859Z,14.98
2022-12-31T20:59:39.288Z,15.09
2022-12-31T21:02:39.184Z,14.99
2022-12-31T21:04:57.051Z,15.22
2022-12-31T21:07:25.592Z,15.24
2022-12-31T21:09:54.121Z,14.46
2022-12-31T21:12:42.106Z,15.35
2022-12-31T21:15:13.604Z,14.44
2022-12-31T21:17:42.206Z,15.25
2022-12-31T21:20:12.171Z,14.05
2022-12-31T21:22:40.743Z,15.19
2022-12-31T21:25:11.617Z,15.61
2022-12-31T21:27:40.104Z,15.64
2022-12-31T21:30:18.779Z,15.59
2022-12-31T21:32:48.135Z,15.57
2022-12-31T21:35:42.647Z,15.23
2022-12-31T21:38:08.100Z,15.22
2022-12-31T21:40:36.692Z,15.34
2022-12-31T21:43:06.361Z,15.45
2022-12-31T21:45:36.298Z,15.57
2022-12-31T21:48:25.007Z,15.70
2022-12-31T21:50:55.996Z,15.60
2022-12-31T21:53:34.133Z,15.57
2022-12-31T21:56:14.648Z,15.71
2022-12-31T21:58:46.032Z,15.32
2022-12-31T22:01:40.554Z,14.97
2022-12-31T22:04:28.293Z,15.73
2022-12-31T22:06:57.840Z,15.85
2022-12-31T22:09:28.623Z,15.93
2022-12-31T22:11:57.168Z,15.91
2022-12-31T22:14:25.915Z,15.98
2022-12-31T22:16:55.958Z,16.10
2022-12-31T22:19:24.720Z,16.11
2022-12-31T22:21:53.086Z,16.10
2022-12-31T22:24:21.512Z,15.39
2022-12-31T22:26:51.157Z,15.30
2022-12-31T22:29:21.560Z,16.19
2022-12-31T22:31:50.227Z,16.31
2022-12-31T22:34:20.267Z,16.08
2022-12-31T22:36:48.731Z,15.97
2022-12-31T22:39:43.613Z,16.27
2022-12-31T22:42:06.223Z,15.93
2022-12-31T22:44:34.724Z,15.47
2022-12-31T22:47:03.274Z,15.03
2022-12-31T22:49:33.105Z,15.21
2022-12-31T22:52:05.651Z,16.17
2022-12-31T22:54:37.121Z,16.14
2022-12-31T22:57:06.018Z,16.12
2022-12-31T22:59:34.588Z,16.22
2022-12-31T23:02:02.984Z,16.16
2022-12-31T23:04:33.059Z,15.56
2022-12-31T23:07:01.555Z,16.20
2022-12-31T23:09:47.732Z,16.20
2022-12-31T23:12:16.300Z,16.18
2022-12-31T23:15:02.758Z,15.56
2022-12-31T23:17:49.182Z,16.26
2022-12-31T23:20:40.627Z,16.22
2022-12-31T23:23:15.056Z,16.09
2022-12-31T23:25:47.191Z,15.23
2022-12-31T23:28:19.659Z,16.11
2022-12-31T23:30:48.164Z,16.01
2022-12-31T23:33:19.307Z,16.26
2022-12-31T23:35:49.658Z,16.29
2022-12-31T23:38:19.482Z,16.16
2022-12-31T23:40:47.906Z,16.39
2022-12-31T23:43:22.716Z,16.30
2022-12-31T23:45:52.375Z,16.35
2022-12-31T23:48:21.350Z,16.48
2022-12-31T23:50:54.272Z,15.24
2022-12-31T23:53:23.551Z,16.52
2022-12-31T23:55:52.648Z,16.00
2022-12-31T23:58:21.473Z,16.21
